Time;durP1;ratioP1;P1;durP2;ratioP2;P2;SDS_P1;SDS_P2;PMS_P1;PMS_P2;Temp;Humidity;BMP_temperature;BMP_pressure;BME280_temperature;BME280_humidity;BME280_pressure;Samples;Min_cycle;Max_cycle;Signal;HPM_P1;HPM_P2
2024/03/25 00:01:43;;;;;;;1.70;1.40;;;;;;;26.99;24.24;99249.30;107108;1264;68412;-88
2024/03/25 00:04:09;;;;;;;1.40;1.30;;;;;;;26.98;24.32;99247.68;106986;1265;68368;-88
2024/03/25 00:06:35;;;;;;;2.70;1.50;;;;;;;26.97;24.21;99247.05;107158;1265;68446;-89
2024/03/25 00:09:01;;;;;;;1.80;1.40;;;;;;;26.96;24.17;99255.55;106903;1265;72666;-88
2024/03/25 00:11:27;;;;;;;1.40;1.30;;;;;;;26.97;24.20;99253.12;106973;1264;68345;-88
2024/03/25 00:13:53;;;;;;;1.60;1.20;;;;;;;26.97;24.26;99251.98;106840;1264;68872;-88
2024/03/25 00:16:19;;;;;;;1.70;1.30;;;;;;;26.96;24.09;99243.58;106875;1268;68442;-88
2024/03/25 00:18:44;;;;;;;2.00;1.30;;;;;;;26.96;24.16;99239.88;106961;1264;68502;-88
2024/03/25 00:21:10;;;;;;;1.60;1.20;;;;;;;26.95;24.26;99238.26;107019;1265;68431;-88
2024/03/25 00:23:35;;;;;;;1.90;1.20;;;;;;;26.96;24.28;99240.98;106745;1266;68190;-88
2024/03/25 00:26:01;;;;;;;1.70;1.30;;;;;;;26.96;24.04;99232.45;106886;1266;68453;-88
2024/03/25 00:28:27;;;;;;;1.20;0.90;;;;;;;26.94;24.13;99222.30;106826;1264;68302;-88
2024/03/25 00:30:53;;;;;;;2.90;1.30;;;;;;;26.94;24.08;99217.87;106958;1268;68759;-88
2024/03/25 00:33:19;;;;;;;2.00;1.20;;;;;;;26.93;24.04;99208.72;106954;1264;69486;-88
2024/03/25 00:35:45;;;;;;;1.50;1.00;;;;;;;26.93;24.12;99197.75;106806;1266;68851;-88
2024/03/25 00:38:12;;;;;;;1.70;1.10;;;;;;;26.93;24.19;99193.65;107008;1264;68173;-88
2024/03/25 00:40:38;;;;;;;1.30;1.20;;;;;;;26.93;23.95;99188.06;106940;1268;68427;-88
2024/03/25 00:43:03;;;;;;;1.60;1.20;;;;;;;26.93;23.94;99188.06;107038;1265;68872;-88
2024/03/25 00:45:30;;;;;;;1.00;1.00;;;;;;;26.92;23.96;99191.97;107019;1265;68380;-88
2024/03/25 00:48:04;;;;;;;1.80;1.10;;;;;;;26.91;23.89;99203.30;106974;1268;68200;-89
2024/03/25 00:50:29;;;;;;;0.80;0.80;;;;;;;26.91;23.92;99206.92;106957;1266;68322;-88
2024/03/25 00:52:55;;;;;;;2.60;1.00;;;;;;;26.91;23.97;99209.33;106959;1266;68452;-88
2024/03/25 00:55:20;;;;;;;1.70;1.00;;;;;;;26.90;23.94;99208.59;106800;1265;68487;-88
2024/03/25 00:57:46;;;;;;;1.00;0.90;;;;;;;26.90;23.84;99201.75;106831;1270;68349;-89
2024/03/25 01:00:12;;;;;;;1.60;0.90;;;;;;;26.90;23.61;99193.23;106978;1264;68425;-89
2024/03/25 01:02:38;;;;;;;2.20;0.90;;;;;;;26.89;23.81;99189.46;106926;1268;72413;-88
2024/03/25 01:05:05;;;;;;;1.50;0.80;;;;;;;26.88;23.92;99184.73;106809;1266;68500;-88
2024/03/25 01:07:31;;;;;;;1.10;0.80;;;;;;;26.88;23.66;99184.97;106918;1266;68328;-89
2024/03/25 01:09:56;;;;;;;1.00;0.90;;;;;;;26.87;23.57;99179.64;107090;1266;68304;-89
2024/03/25 01:12:22;;;;;;;2.50;0.80;;;;;;;26.87;23.55;99173.02;107231;1264;68462;-89
2024/03/25 01:14:47;;;;;;;0.90;0.70;;;;;;;26.87;23.60;99181.77;107124;1264;68410;-89
2024/03/25 01:17:13;;;;;;;0.80;0.60;;;;;;;26.86;23.45;99183.73;109026;1268;68343;-89
2024/03/25 01:19:41;;;;;;;1.30;0.60;;;;;;;26.86;23.43;99185.10;108982;1264;65851;-89
2024/03/25 01:22:07;;;;;;;0.90;0.70;;;;;;;26.86;23.40;99185.93;109264;1265;66652;-89
2024/03/25 01:24:32;;;;;;;2.20;0.60;;;;;;;26.86;23.26;99192.48;107758;1268;68367;-88
2024/03/25 01:27:02;;;;;;;0.60;0.60;;;;;;;26.86;23.45;99194.33;107003;1265;68335;-91
2024/03/25 01:29:27;;;;;;;1.90;0.60;;;;;;;26.85;23.13;99198.02;106852;1265;68307;-89
2024/03/25 01:31:53;;;;;;;1.00;0.70;;;;;;;26.86;23.23;99192.66;106999;1264;69766;-88
2024/03/25 01:34:19;;;;;;;0.90;0.60;;;;;;;26.85;23.17;99186.74;106975;1266;66375;-88
2024/03/25 01:36:45;;;;;;;0.90;0.60;;;;;;;26.84;22.99;99169.38;107030;1265;68429;-88
2024/03/25 01:39:10;;;;;;;0.60;0.60;;;;;;;26.84;22.99;99166.95;106957;1266;68515;-89
2024/03/25 01:41:36;;;;;;;1.10;0.70;;;;;;;26.83;22.91;99168.73;106516;1271;68411;-88
2024/03/25 01:44:02;;;;;;;0.60;0.60;;;;;;;26.83;22.80;99161.91;107129;1268;68395;-88
2024/03/25 01:46:28;;;;;;;0.80;0.60;;;;;;;26.82;23.03;99160.24;106947;1266;68301;-88
2024/03/25 01:48:53;;;;;;;1.80;0.60;;;;;;;26.81;22.76;99156.61;106997;1264;69564;-89
2024/03/25 01:51:19;;;;;;;0.70;0.50;;;;;;;26.81;22.80;99152.23;107218;1265;68510;-88
2024/03/25 01:54:02;;;;;;;0.90;0.60;;;;;;;26.80;22.74;99145.65;107815;1266;66087;-90
2024/03/25 01:56:28;;;;;;;0.60;0.50;;;;;;;26.79;22.63;99136.30;106810;1265;72719;-88
2024/03/25 01:58:53;;;;;;;0.90;0.50;;;;;;;26.79;22.74;99124.77;107171;1266;68369;-88
2024/03/25 02:01:19;;;;;;;0.60;0.50;;;;;;;26.78;22.75;99125.56;107071;1265;68757;-88
2024/03/25 02:03:44;;;;;;;0.60;0.60;;;;;;;26.78;22.49;99117.73;107030;1266;68504;-88
2024/03/25 02:06:13;;;;;;;0.70;0.50;;;;;;;26.77;22.53;99114.67;107617;1265;66491;-90
2024/03/25 02:11:20;;;;;;;0.60;0.60;;;;;;;26.76;22.61;99107.52;106872;1267;68327;-88
2024/03/25 02:13:45;;;;;;;0.60;0.40;;;;;;;26.75;22.65;99100.36;106957;1268;68313;-88
2024/03/25 02:16:11;;;;;;;0.60;0.40;;;;;;;26.75;22.67;99099.37;106916;1267;68437;-88
2024/03/25 02:18:36;;;;;;;0.60;0.50;;;;;;;26.75;22.53;99097.64;107058;1266;68879;-88
2024/03/25 02:21:02;;;;;;;0.40;0.40;;;;;;;26.74;22.59;99101.30;106842;1267;68426;-89
2024/03/25 02:23:28;;;;;;;0.50;0.40;;;;;;;26.74;22.44;99104.67;106909;1270;68297;-88
2024/03/25 02:25:53;;;;;;;0.40;0.30;;;;;;;26.74;22.30;99108.16;108215;1267;66129;-88
2024/03/25 02:28:19;;;;;;;0.40;0.40;;;;;;;26.73;22.47;99117.23;109121;1265;65987;-88
2024/03/25 02:30:44;;;;;;;0.40;0.40;;;;;;;26.73;22.30;99126.17;109109;1267;65898;-89
2024/03/25 02:33:10;;;;;;;1.00;0.50;;;;;;;26.73;22.37;99135.68;108864;1266;65899;-89
2024/03/25 02:38:13;;;;;;;0.60;0.40;;;;;;;26.74;22.30;99165.21;109057;1264;72672;-89
2024/03/25 02:40:38;;;;;;;0.40;0.40;;;;;;;26.75;22.35;99179.77;109024;1265;65982;-89
2024/03/25 02:43:04;;;;;;;0.70;0.40;;;;;;;26.75;22.23;99188.45;107103;1271;69417;-88
2024/03/25 02:45:29;;;;;;;0.40;0.40;;;;;;;26.76;22.18;99200.85;106836;1267;68448;-88
2024/03/25 02:47:55;;;;;;;0.50;0.30;;;;;;;26.75;22.18;99204.95;106833;1265;68293;-88
2024/03/25 02:50:20;;;;;;;0.30;0.30;;;;;;;26.74;22.09;99204.87;106556;1268;68389;-88
2024/03/25 02:52:46;;;;;;;0.40;0.40;;;;;;;26.74;22.06;99204.84;106989;1265;68458;-88
2024/03/25 02:55:11;;;;;;;0.40;0.30;;;;;;;26.73;22.07;99207.19;107030;1264;68276;-88
2024/03/25 02:57:37;;;;;;;0.40;0.30;;;;;;;26.72;21.89;99219.73;107019;1265;68411;-88
2024/03/25 03:00:03;;;;;;;0.50;0.40;;;;;;;26.71;22.02;99237.69;106895;1266;68402;-88
2024/03/25 03:05:16;;;;;;;0.30;0.30;;;;;;;26.69;22.03;99242.77;107654;1262;68619;-87
2024/03/25 03:07:41;;;;;;;0.80;0.30;;;;;;;26.68;21.88;99248.12;107171;1264;68440;-87
2024/03/25 03:10:07;;;;;;;0.50;0.40;;;;;;;26.68;22.01;99261.85;107208;1265;65980;-87
2024/03/25 03:12:33;;;;;;;0.50;0.30;;;;;;;26.68;22.09;99266.36;107193;1266;68420;-88
2024/03/25 03:14:58;;;;;;;0.40;0.30;;;;;;;26.66;22.13;99274.31;107136;1267;66523;-88
2024/03/25 03:26:16;;;;;;;0.50;0.40;;;;;;;26.64;22.04;99273.80;107709;1265;68411;-87
2024/03/25 03:28:41;;;;;;;0.90;0.30;;;;;;;26.64;22.10;99261.63;107317;1264;68423;-87
2024/03/25 03:31:07;;;;;;;0.80;0.40;;;;;;;26.64;22.08;99251.27;107404;1261;68274;-87
2024/03/25 03:33:33;;;;;;;0.30;0.30;;;;;;;26.63;22.04;99228.81;107153;1268;68489;-87
2024/03/25 03:38:55;;;;;;;0.70;0.50;;;;;;;26.62;22.05;99186.38;107177;1265;68341;-88
2024/03/25 03:44:01;;;;;;;;;;;;;;;26.61;22.05;99174.83;106947;1262;72324;-88
2024/03/25 03:46:50;;;;;;;1.10;0.60;;;;;;;26.58;21.97;99180.39;107041;1262;68440;-89
2024/03/25 03:51:44;;;;;;;0.80;0.50;;;;;;;26.51;21.88;99172.08;107229;1265;68412;-88
2024/03/25 03:54:32;;;;;;;0.80;0.40;;;;;;;26.49;21.73;99163.64;108452;1259;68571;31
2024/03/25 03:56:58;;;;;;;0.50;0.50;;;;;;;26.47;21.92;99158.98;107172;1264;72460;-88
2024/03/25 03:59:23;;;;;;;1.00;0.40;;;;;;;26.47;21.69;99160.41;107183;1264;68355;-88
2024/03/25 04:01:49;;;;;;;2.00;0.40;;;;;;;26.47;21.76;99166.88;107459;1264;68427;-87
2024/03/25 04:04:15;;;;;;;0.70;0.40;;;;;;;26.47;21.72;99173.16;107055;1265;68430;-88
2024/03/25 04:06:43;;;;;;;2.10;0.50;;;;;;;26.46;21.52;99176.23;107296;1268;68328;-88
2024/03/25 04:09:13;;;;;;;0.90;0.60;;;;;;;26.45;21.60;99184.94;107195;1269;72534;-87
2024/03/25 04:11:43;;;;;;;1.90;0.70;;;;;;;26.45;21.77;99189.56;108080;1260;68260;31
2024/03/25 04:17:15;;;;;;;2.50;2.00;;;;;;;26.46;22.19;99197.71;108238;1259;66252;-88
2024/03/25 04:40:55;;;;;;;11.10;1.70;;;;;;;25.83;22.42;99258.52;108007;1263;67178;-88
2024/03/25 04:46:01;;;;;;;8.60;1.60;;;;;;;25.75;22.79;99267.30;107346;1264;68407;-87
2024/03/25 04:48:26;;;;;;;9.70;1.00;;;;;;;25.71;23.45;99261.59;107059;1265;68422;-87
2024/03/25 04:50:52;;;;;;;6.10;1.10;;;;;;;25.67;23.80;99265.79;107511;1266;69643;-87
2024/03/25 04:59:23;;;;;;;2.60;0.80;;;;;;;25.54;24.08;99276.39;108255;1262;66239;-88
2024/03/25 05:01:54;;;;;;;2.50;0.80;;;;;;;25.51;23.64;99278.56;107490;1262;68403;-89
2024/03/25 05:06:59;;;;;;;5.60;0.70;;;;;;;25.43;23.65;99282.12;107482;1264;68217;-89
2024/03/25 05:09:25;;;;;;;12.50;1.00;;;;;;;25.41;23.33;99285.98;108426;1265;68396;-90
2024/03/25 05:11:50;;;;;;;8.20;1.20;;;;;;;25.38;23.47;99287.75;107646;1268;68416;-89
2024/03/25 05:14:22;;;;;;;8.00;1.20;;;;;;;25.36;23.43;99295.36;107853;1264;68454;-89
2024/03/25 05:16:49;;;;;;;6.10;1.00;;;;;;;25.35;23.33;99303.59;107740;1263;69086;-89
2024/03/25 05:21:52;;;;;;;4.50;0.90;;;;;;;25.31;23.10;99302.70;107672;1262;68477;-89
2024/03/25 05:24:17;;;;;;;2.70;0.70;;;;;;;25.29;22.83;99302.24;108373;1260;68235;-88
2024/03/25 05:26:46;;;;;;;3.10;0.80;;;;;;;25.27;23.10;99309.58;108039;1263;66858;-89
2024/03/25 05:29:30;;;;;;;1.30;0.60;;;;;;;25.22;23.00;99308.83;108109;1262;72330;-89
2024/03/25 14:27:12;;;;;;;2.10;0.80;;;;;;;26.14;22.05;99397.21;109063;1261;66135;31
2024/03/25 23:07:23;;;;;;;3.30;2.40;;;;;;;26.24;21.88;99919.51;109403;1262;67473;-92
